Portada
METAR-TAF:

METAR-TAF

Aeroports :

Madrid-Torrejón, Espanya

latitud: 40-29N, longitud: 003-27W, altitud: 607 m

Observació

L'informe es va fer fa 22 minuts, a les 05:00 UTC
Vent 3 kt del Nord
Temperatura 1°C
Humitat 80%
Pressió 1027 hPa
Visibilitat 10 km o més
sense núvols per sota de 1500 mi sense presència de cumulonimbus.

METAR: LETO 200500Z 01003KT CAVOK 01/M02 Q1027 NOSIG

Hora: 06:22 (05:22 UTC)

Pronòstic

L'informe es va fer fa 6 hores i 22 minuts, a les 23:00 UTC
Pronòstic vàlid del 20 a les 00 UTC al 20 a les 24 UTC
Vent 10 kt del Nord/Nord-Est
Visibilitat 10 km o més
sense núvols per sota de 1500 mi sense presència de cumulonimbus.
Probabilitat 30% :
Temporalment
l' 20 a les 12 UTC al 20 a les 17 UTC
Vent 15 kt del Nord/Nord-Est amb ràfegues de 25 kt

TAF: LETO 192300Z 2000/2024 02010KT CAVOK TX17/2015Z TN02/2006Z PROB30 TEMPO 2012/2017 02015G25KT

Observacions i pronòstics meteorològics de més de 4000 aeroports (METAR i TAF).

Les estacions disponibles són els punts grocs i vermells al mapa.

Posi el ratolí al punt desitjat per veure el nom de l'estació.

Feu clic per veure les observacions i els pronòstics meteorològics.

Per canviar el mapa: feu clic els botons verds amb una creu de color negre per apropar; al botó verd amb un guió per allunyar la imatge; o en les fletxes verdes per a mapes adjacents.


METAR-TAF: